createdAt,value
2019-02-06T00:00:06.024Z,0.00
2019-02-06T00:01:06.022Z,0.00
2019-02-06T00:02:05.999Z,0.00
2019-02-06T00:03:05.997Z,0.00
2019-02-06T00:04:06.009Z,0.00
2019-02-06T00:05:13.919Z,0.00
2019-02-06T00:06:05.945Z,0.00
2019-02-06T00:07:05.937Z,0.00
2019-02-06T00:08:05.947Z,0.00
2019-02-06T00:09:05.942Z,0.00
2019-02-06T00:10:05.957Z,0.00
2019-02-06T00:11:05.896Z,0.00
2019-02-06T00:12:05.890Z,0.00
2019-02-06T00:13:05.909Z,0.00
2019-02-06T00:14:05.888Z,0.00
2019-02-06T00:15:05.891Z,0.00
2019-02-06T00:16:06.023Z,0.00
2019-02-06T00:17:05.910Z,0.00
2019-02-06T00:18:05.877Z,0.00
2019-02-06T00:19:05.875Z,0.00
2019-02-06T00:20:05.888Z,0.00
2019-02-06T00:21:06.024Z,0.00
2019-02-06T00:22:05.808Z,0.00
2019-02-06T00:23:05.832Z,0.00
2019-02-06T00:24:05.796Z,0.00
2019-02-06T00:25:05.839Z,0.00
2019-02-06T00:26:05.781Z,0.00
2019-02-06T00:27:05.761Z,0.00
2019-02-06T00:28:05.747Z,0.00
2019-02-06T00:29:05.700Z,0.00
2019-02-06T00:30:05.718Z,0.00
2019-02-06T00:31:05.691Z,0.00
2019-02-06T00:32:05.684Z,0.00
2019-02-06T00:33:05.676Z,0.00
2019-02-06T00:34:05.731Z,0.00
2019-02-06T00:35:05.662Z,0.00
2019-02-06T00:36:05.619Z,0.00
2019-02-06T00:37:05.631Z,0.00
2019-02-06T00:38:05.703Z,0.00
2019-02-06T00:39:05.870Z,0.00
2019-02-06T00:40:05.608Z,0.00
2019-02-06T00:41:05.573Z,0.00
2019-02-06T00:42:05.552Z,0.00
2019-02-06T00:43:05.560Z,0.00
2019-02-06T00:44:05.533Z,0.00
2019-02-06T00:45:05.560Z,0.00
2019-02-06T00:46:05.515Z,0.00
2019-02-06T00:47:05.571Z,0.00
2019-02-06T00:48:05.497Z,0.00
2019-02-06T00:49:05.494Z,0.00
2019-02-06T00:50:05.523Z,0.00
2019-02-06T00:51:05.480Z,0.00
2019-02-06T00:52:05.445Z,0.00
2019-02-06T00:53:05.445Z,0.00
2019-02-06T00:54:05.421Z,0.00
2019-02-06T00:55:05.452Z,0.00
2019-02-06T00:56:05.403Z,0.00
2019-02-06T00:57:05.426Z,0.00
2019-02-06T00:58:05.388Z,0.00
2019-02-06T00:59:05.374Z,0.00
2019-02-06T01:00:05.427Z,0.00
2019-02-06T01:01:05.369Z,0.00
2019-02-06T01:02:05.345Z,0.00
2019-02-06T01:03:05.329Z,0.00
2019-02-06T01:04:05.317Z,0.00
2019-02-06T01:05:05.336Z,0.00
2019-02-06T01:06:05.296Z,0.00
2019-02-06T01:07:05.302Z,0.00
2019-02-06T01:08:05.276Z,0.00
2019-02-06T01:09:05.267Z,0.00
2019-02-06T01:10:05.403Z,0.00
2019-02-06T01:11:05.256Z,0.00
2019-02-06T01:12:05.240Z,0.00
2019-02-06T01:13:05.223Z,0.00
2019-02-06T01:14:05.214Z,0.00
2019-02-06T01:15:05.244Z,0.00
2019-02-06T01:16:05.197Z,0.00
2019-02-06T01:17:05.213Z,0.00
2019-02-06T01:18:05.214Z,0.00
2019-02-06T01:19:05.219Z,0.00
2019-02-06T01:20:05.285Z,0.00
2019-02-06T01:21:05.171Z,0.00
2019-02-06T01:22:05.151Z,0.00
2019-02-06T01:23:05.231Z,0.00
2019-02-06T01:24:05.141Z,0.00
2019-02-06T01:25:05.204Z,0.00
2019-02-06T01:26:05.111Z,0.00
2019-02-06T01:27:05.149Z,0.00
2019-02-06T01:28:05.070Z,0.00
2019-02-06T01:29:05.051Z,0.00
2019-02-06T01:30:05.036Z,0.00
2019-02-06T01:31:05.036Z,0.00
2019-02-06T01:32:05.041Z,0.00
2019-02-06T01:33:05.005Z,0.00
2019-02-06T01:34:05.000Z,0.00
2019-02-06T01:35:04.987Z,0.00
2019-02-06T01:36:04.992Z,0.00
2019-02-06T01:37:04.978Z,0.00
2019-02-06T01:38:04.950Z,0.00
2019-02-06T01:39:04.957Z,0.00
2019-02-06T01:40:04.943Z,0.00
2019-02-06T01:41:04.939Z,0.00
2019-02-06T01:42:04.913Z,0.00
2019-02-06T01:43:04.888Z,0.00
2019-02-06T01:44:04.880Z,0.00
2019-02-06T01:45:04.886Z,0.00
2019-02-06T01:46:04.898Z,0.00
2019-02-06T01:47:04.863Z,0.00
2019-02-06T01:48:04.851Z,0.00
2019-02-06T01:49:04.828Z,0.00
2019-02-06T01:50:04.814Z,0.00
2019-02-06T01:51:04.925Z,0.00
2019-02-06T01:52:04.792Z,0.00
2019-02-06T01:53:04.788Z,0.00
2019-02-06T01:54:04.791Z,0.00
2019-02-06T01:55:04.785Z,0.00
2019-02-06T01:56:04.791Z,0.00
2019-02-06T01:57:04.738Z,0.00
2019-02-06T01:58:04.743Z,0.00
2019-02-06T01:59:04.731Z,0.00
2019-02-06T02:00:04.713Z,0.00
2019-02-06T02:01:04.724Z,0.00
2019-02-06T02:02:04.710Z,0.00
2019-02-06T02:03:04.683Z,0.00
2019-02-06T02:04:05.395Z,0.00
2019-02-06T02:05:05.342Z,0.00
2019-02-06T02:06:04.677Z,0.00
2019-02-06T02:07:04.630Z,0.00
2019-02-06T02:08:04.631Z,0.00
2019-02-06T02:09:04.618Z,0.00
2019-02-06T02:10:04.616Z,0.00
2019-02-06T02:11:04.644Z,0.00
2019-02-06T02:12:04.586Z,0.00
2019-02-06T02:13:04.586Z,0.00
2019-02-06T02:14:04.568Z,0.00
2019-02-06T02:15:04.617Z,0.00
2019-02-06T02:16:04.569Z,0.00
2019-02-06T02:17:04.565Z,0.00
2019-02-06T02:18:04.579Z,0.00
2019-02-06T02:19:04.548Z,0.00
2019-02-06T02:20:04.531Z,0.00
2019-02-06T02:21:04.657Z,0.00
2019-02-06T02:22:04.609Z,0.00
2019-02-06T02:23:04.492Z,0.00
2019-02-06T02:24:04.510Z,0.00
2019-02-06T02:25:04.478Z,0.00
2019-02-06T02:26:04.535Z,0.00
2019-02-06T02:27:04.454Z,0.00
2019-02-06T02:28:04.411Z,0.00
2019-02-06T02:29:04.404Z,0.00
2019-02-06T02:30:04.419Z,0.00
2019-02-06T02:31:04.422Z,0.00
2019-02-06T02:32:04.367Z,0.00
2019-02-06T02:33:04.349Z,0.00
2019-02-06T02:34:04.349Z,0.00
2019-02-06T02:35:04.337Z,0.00
2019-02-06T02:36:14.881Z,0.00
2019-02-06T02:37:04.310Z,0.00
2019-02-06T02:38:04.299Z,0.00
2019-02-06T02:39:04.599Z,0.00
2019-02-06T02:40:04.297Z,0.00
2019-02-06T02:41:04.292Z,0.00
2019-02-06T02:42:04.270Z,0.00
2019-02-06T02:43:04.363Z,0.00
2019-02-06T02:44:04.250Z,0.00
2019-02-06T02:45:04.221Z,0.00
2019-02-06T02:46:04.863Z,0.00
2019-02-06T02:47:04.206Z,0.00
2019-02-06T02:48:04.186Z,0.00
2019-02-06T02:49:04.210Z,0.00
2019-02-06T02:50:04.169Z,0.00
2019-02-06T02:51:04.192Z,0.00
2019-02-06T02:52:04.146Z,0.00
2019-02-06T02:53:04.132Z,0.00
2019-02-06T02:54:04.136Z,0.00
2019-02-06T02:55:04.121Z,0.00
2019-02-06T02:56:04.122Z,0.00
2019-02-06T02:57:04.104Z,0.00
2019-02-06T02:58:04.085Z,0.00
2019-02-06T02:59:04.071Z,0.00
2019-02-06T03:00:04.084Z,0.00
2019-02-06T03:01:04.096Z,0.00
2019-02-06T03:02:04.053Z,0.00
2019-02-06T03:03:04.036Z,0.00
2019-02-06T03:04:04.028Z,0.00
2019-02-06T03:05:04.017Z,0.00
2019-02-06T03:06:04.034Z,0.00
2019-02-06T03:07:03.989Z,0.00
2019-02-06T03:08:03.969Z,0.00
2019-02-06T03:09:04.011Z,0.00
2019-02-06T03:10:03.958Z,0.00
2019-02-06T03:11:03.949Z,0.00
2019-02-06T03:12:03.971Z,0.00
2019-02-06T03:13:03.944Z,0.00
2019-02-06T03:14:03.907Z,0.00
2019-02-06T03:15:03.913Z,0.00
2019-02-06T03:16:03.890Z,0.00
2019-02-06T03:17:03.966Z,0.00
2019-02-06T03:18:04.188Z,0.00
2019-02-06T03:19:03.929Z,0.00
2019-02-06T03:20:03.870Z,0.00
2019-02-06T03:21:03.862Z,0.00
2019-02-06T03:22:03.916Z,0.00
2019-02-06T03:23:03.909Z,0.00
2019-02-06T03:24:03.861Z,0.00
2019-02-06T03:25:03.828Z,0.00
2019-02-06T03:26:03.928Z,0.00
2019-02-06T03:27:03.866Z,0.00
2019-02-06T03:28:03.756Z,0.00
2019-02-06T03:29:03.743Z,0.00
2019-02-06T03:30:03.768Z,0.00
2019-02-06T03:31:03.744Z,0.00
2019-02-06T03:32:03.753Z,0.00
2019-02-06T03:33:04.578Z,0.00
2019-02-06T03:34:05.030Z,0.00
2019-02-06T03:35:03.689Z,0.00
2019-02-06T03:36:03.693Z,0.00
2019-02-06T03:37:03.691Z,0.00
2019-02-06T03:38:03.648Z,0.00
2019-02-06T03:39:03.664Z,0.00
2019-02-06T03:40:03.624Z,0.00
2019-02-06T03:41:03.694Z,0.00
2019-02-06T03:42:03.652Z,0.00
2019-02-06T03:43:03.596Z,0.00
2019-02-06T03:44:03.581Z,0.00
2019-02-06T03:45:03.572Z,0.00
2019-02-06T03:46:03.592Z,0.00
2019-02-06T03:47:03.581Z,0.00
2019-02-06T03:48:03.551Z,0.00
2019-02-06T03:49:03.550Z,0.00
2019-02-06T03:50:03.527Z,0.00
2019-02-06T03:51:03.511Z,0.00
2019-02-06T03:52:03.537Z,0.00
2019-02-06T03:53:03.498Z,0.00
2019-02-06T03:54:03.482Z,0.00
2019-02-06T03:55:03.482Z,0.00
2019-02-06T03:56:03.484Z,0.00
2019-02-06T03:57:03.552Z,0.00
2019-02-06T03:58:03.430Z,0.00
2019-02-06T03:59:03.423Z,0.00
2019-02-06T04:00:03.415Z,0.00
2019-02-06T04:01:03.407Z,0.00
2019-02-06T04:02:03.418Z,0.00
2019-02-06T04:03:03.379Z,0.00
2019-02-06T04:04:03.383Z,0.00
2019-02-06T04:05:03.349Z,0.00
2019-02-06T04:06:03.359Z,0.00
2019-02-06T04:07:03.357Z,0.00
2019-02-06T04:08:03.344Z,0.00
2019-02-06T04:09:03.325Z,0.00
2019-02-06T04:10:03.309Z,0.00
2019-02-06T04:11:03.337Z,0.00
2019-02-06T04:12:03.317Z,0.00
2019-02-06T04:13:03.271Z,0.00
2019-02-06T04:14:03.263Z,0.00
2019-02-06T04:15:03.243Z,0.00
2019-02-06T04:16:03.427Z,0.00
2019-02-06T04:17:03.333Z,0.00
2019-02-06T04:18:03.244Z,0.00
2019-02-06T04:19:03.243Z,0.00
2019-02-06T04:20:03.226Z,0.00
2019-02-06T04:21:03.247Z,0.00
2019-02-06T04:22:03.344Z,0.00
2019-02-06T04:23:03.192Z,0.00
2019-02-06T04:24:03.194Z,0.00
2019-02-06T04:25:03.187Z,0.00
2019-02-06T04:26:03.181Z,0.00
2019-02-06T04:27:03.254Z,0.00
2019-02-06T04:28:03.125Z,0.00
2019-02-06T04:29:03.106Z,0.00
2019-02-06T04:30:03.126Z,0.00
2019-02-06T04:31:03.097Z,0.00
2019-02-06T04:32:03.071Z,0.00
2019-02-06T04:33:03.070Z,0.00
2019-02-06T04:34:03.038Z,0.00
2019-02-06T04:35:03.031Z,0.00
2019-02-06T04:36:03.020Z,0.00
2019-02-06T04:37:06.569Z,0.00
2019-02-06T04:38:03.151Z,0.00
2019-02-06T04:39:03.003Z,0.00
2019-02-06T04:40:02.976Z,0.00
2019-02-06T04:41:03.001Z,0.00
2019-02-06T04:42:02.957Z,0.00
2019-02-06T04:43:04.047Z,0.00
2019-02-06T04:44:02.934Z,0.00
2019-02-06T04:45:02.925Z,0.00
2019-02-06T04:46:02.911Z,0.00
2019-02-06T04:47:02.980Z,0.00
2019-02-06T04:48:02.930Z,0.00
2019-02-06T04:49:02.881Z,0.00
2019-02-06T04:50:02.881Z,0.00
2019-02-06T04:51:02.871Z,0.00
2019-02-06T04:52:02.853Z,0.00
2019-02-06T04:53:02.928Z,0.00
2019-02-06T04:54:02.925Z,0.00
2019-02-06T04:55:02.812Z,0.00
2019-02-06T04:56:02.808Z,0.00
2019-02-06T04:57:02.797Z,0.00
2019-02-06T04:58:02.818Z,0.00
2019-02-06T04:59:02.785Z,0.00
2019-02-06T05:00:02.809Z,0.00
2019-02-06T05:01:02.789Z,0.00
2019-02-06T05:02:02.783Z,0.00
2019-02-06T05:03:02.810Z,0.00
2019-02-06T05:04:02.767Z,0.00
2019-02-06T05:05:02.734Z,0.00
2019-02-06T05:06:02.734Z,0.00
2019-02-06T05:07:02.684Z,0.00
2019-02-06T05:08:02.809Z,0.00
2019-02-06T05:09:02.697Z,0.00
2019-02-06T05:10:02.688Z,0.00
2019-02-06T05:11:02.690Z,0.00
2019-02-06T05:12:02.708Z,0.00
2019-02-06T05:13:02.722Z,0.00
2019-02-06T05:14:02.653Z,0.00
2019-02-06T05:15:02.606Z,0.00
2019-02-06T05:16:02.635Z,0.00
2019-02-06T05:17:02.671Z,0.00
2019-02-06T05:18:32.787Z,0.00
2019-02-06T05:19:02.592Z,0.00
2019-02-06T05:20:02.578Z,0.00
2019-02-06T05:21:02.552Z,0.00
2019-02-06T05:22:02.548Z,0.00
2019-02-06T05:23:02.555Z,0.00
2019-02-06T05:24:02.536Z,0.00
2019-02-06T05:25:02.525Z,0.00
2019-02-06T05:26:02.542Z,0.00
2019-02-06T05:27:02.503Z,0.00
2019-02-06T05:28:02.603Z,0.00
2019-02-06T05:29:02.494Z,0.00
2019-02-06T05:30:02.436Z,0.00
2019-02-06T05:31:02.445Z,0.00
2019-02-06T05:32:02.417Z,0.00
2019-02-06T05:33:02.448Z,0.00
2019-02-06T05:34:02.390Z,0.00
2019-02-06T05:35:02.423Z,0.00
2019-02-06T05:36:02.561Z,0.00
2019-02-06T05:37:02.371Z,0.00
2019-02-06T05:38:02.392Z,0.00
2019-02-06T05:39:02.355Z,0.00
2019-02-06T05:40:02.339Z,0.00
2019-02-06T05:41:02.319Z,0.00
2019-02-06T05:42:02.320Z,0.00
2019-02-06T05:43:02.322Z,0.00
2019-02-06T05:44:02.292Z,0.00
2019-02-06T05:45:02.262Z,0.00
2019-02-06T05:46:02.269Z,0.00
2019-02-06T05:47:02.250Z,0.00
2019-02-06T05:48:02.266Z,0.00
2019-02-06T05:49:02.226Z,0.00
2019-02-06T05:50:02.227Z,0.00
2019-02-06T05:51:02.209Z,0.00
2019-02-06T05:52:02.201Z,0.00
2019-02-06T05:53:02.220Z,0.00
2019-02-06T05:54:02.217Z,0.00
2019-02-06T05:55:04.751Z,0.00
2019-02-06T05:56:02.163Z,0.00
2019-02-06T05:57:02.140Z,0.00
2019-02-06T05:58:02.280Z,0.00
2019-02-06T05:59:02.133Z,0.00
2019-02-06T06:00:02.116Z,0.00
2019-02-06T06:01:02.138Z,0.00
2019-02-06T06:02:02.090Z,0.00
2019-02-06T06:03:02.073Z,0.00
2019-02-06T06:04:02.063Z,0.00
2019-02-06T06:05:02.093Z,0.00
2019-02-06T06:06:02.046Z,0.00
2019-02-06T06:07:02.046Z,108.00
2019-02-06T06:08:02.037Z,180.00
2019-02-06T06:09:02.008Z,208.00
2019-02-06T06:10:02.013Z,216.00
2019-02-06T06:11:01.992Z,220.00
2019-02-06T06:12:01.998Z,220.00
2019-02-06T06:13:01.966Z,212.00
2019-02-06T06:14:02.003Z,212.00
2019-02-06T06:15:01.981Z,208.00
2019-02-06T06:16:01.936Z,208.00
2019-02-06T06:17:01.954Z,204.00
2019-02-06T06:18:01.968Z,204.00
2019-02-06T06:19:03.420Z,200.00
2019-02-06T06:20:01.967Z,200.00
2019-02-06T06:21:01.963Z,196.00
2019-02-06T06:22:01.927Z,196.00
2019-02-06T06:23:11.369Z,200.00
2019-02-06T06:24:01.884Z,200.00
2019-02-06T06:25:01.988Z,196.00
2019-02-06T06:26:01.870Z,196.00
2019-02-06T06:27:01.862Z,196.00
2019-02-06T06:28:01.861Z,192.00
2019-02-06T06:29:01.802Z,196.00
2019-02-06T06:30:01.815Z,196.00
2019-02-06T06:31:01.784Z,200.00
2019-02-06T06:32:01.784Z,200.00
2019-02-06T06:33:01.802Z,200.00
2019-02-06T06:34:01.737Z,200.00
2019-02-06T06:35:01.854Z,204.00
2019-02-06T06:36:01.869Z,204.00
2019-02-06T06:37:01.722Z,204.00
2019-02-06T06:38:02.531Z,204.00
2019-02-06T06:39:01.754Z,204.00
2019-02-06T06:40:01.728Z,204.00
2019-02-06T06:41:01.668Z,208.00
2019-02-06T06:42:01.661Z,208.00
2019-02-06T06:43:02.320Z,208.00
2019-02-06T06:44:01.691Z,212.00
2019-02-06T06:45:01.651Z,216.00
2019-02-06T06:46:01.616Z,216.00
2019-02-06T06:47:01.711Z,216.00
2019-02-06T06:48:01.601Z,220.00
2019-02-06T06:49:01.576Z,220.00
2019-02-06T06:50:01.593Z,220.00
2019-02-06T06:51:01.584Z,220.00
2019-02-06T06:52:03.944Z,224.00
2019-02-06T06:53:01.555Z,228.00
2019-02-06T06:54:01.572Z,228.00
2019-02-06T06:55:01.548Z,232.00
2019-02-06T06:56:01.495Z,236.00
2019-02-06T06:57:01.558Z,236.00
2019-02-06T06:58:01.591Z,240.00
2019-02-06T06:59:01.481Z,244.00
2019-02-06T07:00:01.677Z,248.00
2019-02-06T07:01:01.450Z,248.00
2019-02-06T07:02:01.438Z,256.00
2019-02-06T07:03:01.517Z,264.00
2019-02-06T07:04:01.503Z,268.00
2019-02-06T07:05:01.462Z,272.00
2019-02-06T07:06:03.616Z,280.00
2019-02-06T07:07:01.385Z,284.00
2019-02-06T07:08:09.062Z,292.00
2019-02-06T07:09:01.404Z,300.00
2019-02-06T07:10:01.391Z,308.00
2019-02-06T07:11:01.429Z,316.00
2019-02-06T07:12:01.331Z,324.00
2019-02-06T07:13:01.407Z,336.00
2019-02-06T07:14:01.357Z,344.00
2019-02-06T07:15:01.337Z,360.00
2019-02-06T07:16:01.309Z,372.00
2019-02-06T07:17:01.274Z,388.00
2019-02-06T07:18:01.301Z,400.00
2019-02-06T07:19:01.297Z,416.00
2019-02-06T07:20:01.329Z,428.00
2019-02-06T07:21:01.785Z,444.00
2019-02-06T07:22:01.278Z,460.00
2019-02-06T07:23:01.268Z,476.00
2019-02-06T07:24:01.228Z,488.00
2019-02-06T07:25:01.301Z,504.00
2019-02-06T07:26:01.225Z,516.00
2019-02-06T07:27:01.203Z,536.00
2019-02-06T07:28:01.284Z,556.00
2019-02-06T07:29:01.177Z,572.00
2019-02-06T07:30:01.172Z,588.00
2019-02-06T07:31:01.142Z,604.00
2019-02-06T07:32:01.122Z,620.00
2019-02-06T07:33:01.129Z,640.00
2019-02-06T07:34:01.437Z,656.00
2019-02-06T07:35:01.297Z,676.00
2019-02-06T07:36:01.104Z,700.00
2019-02-06T07:37:01.116Z,724.00
2019-02-06T07:38:01.757Z,756.00
2019-02-06T07:39:01.048Z,784.00
2019-02-06T07:40:01.028Z,832.00
2019-02-06T07:41:01.045Z,884.00
2019-02-06T07:42:01.033Z,908.00
2019-02-06T07:43:01.066Z,968.00
2019-02-06T07:44:01.015Z,1008.00
2019-02-06T07:45:01.159Z,1048.00
2019-02-06T07:46:01.163Z,1092.00
2019-02-06T07:47:01.008Z,1136.00
2019-02-06T07:48:00.965Z,1184.00
2019-02-06T07:49:02.193Z,1184.00
2019-02-06T07:50:00.953Z,1196.00
2019-02-06T07:51:00.968Z,1240.00
2019-02-06T07:52:00.939Z,1260.00
2019-02-06T07:53:00.963Z,1288.00
2019-02-06T07:54:00.880Z,1284.00
2019-02-06T07:55:00.911Z,1136.00
2019-02-06T07:56:01.083Z,1164.00
2019-02-06T07:57:00.841Z,1172.00
2019-02-06T07:58:00.832Z,1180.00
2019-02-06T07:59:00.824Z,1200.00
2019-02-06T08:00:00.877Z,1220.00
2019-02-06T08:01:00.883Z,1228.00
2019-02-06T08:02:00.817Z,1232.00
2019-02-06T08:03:00.875Z,1244.00
2019-02-06T08:04:00.790Z,1260.00
2019-02-06T08:05:00.807Z,1288.00
2019-02-06T08:06:00.752Z,1320.00
2019-02-06T08:07:00.815Z,1320.00
2019-02-06T08:08:00.734Z,1300.00
2019-02-06T08:09:00.786Z,1292.00
2019-02-06T08:10:00.707Z,1296.00
2019-02-06T08:11:02.928Z,1316.00
2019-02-06T08:12:00.691Z,1328.00
2019-02-06T08:13:00.665Z,1344.00
2019-02-06T08:14:00.672Z,1360.00
2019-02-06T08:15:00.658Z,1372.00
2019-02-06T08:16:00.719Z,1384.00
2019-02-06T08:17:00.708Z,1388.00
2019-02-06T08:18:00.668Z,1416.00
2019-02-06T08:19:00.737Z,1424.00
2019-02-06T08:20:00.641Z,1420.00
2019-02-06T08:21:00.687Z,1412.00
2019-02-06T08:22:00.791Z,1420.00
2019-02-06T08:23:00.906Z,1396.00
2019-02-06T08:24:00.602Z,1400.00
2019-02-06T08:25:00.599Z,1396.00
2019-02-06T08:26:00.733Z,1376.00
2019-02-06T08:27:00.589Z,1348.00
2019-02-06T08:28:00.575Z,1336.00
2019-02-06T08:29:01.394Z,1336.00
2019-02-06T08:30:00.559Z,1360.00
2019-02-06T08:31:00.610Z,1384.00
2019-02-06T08:32:00.537Z,1396.00
2019-02-06T08:33:00.496Z,1412.00
2019-02-06T08:34:00.497Z,1420.00
2019-02-06T08:35:01.257Z,1416.00
2019-02-06T08:36:00.460Z,1424.00
2019-02-06T08:37:00.432Z,1436.00
2019-02-06T08:38:00.408Z,1460.00
2019-02-06T08:39:00.386Z,1468.00
2019-02-06T08:40:00.423Z,1476.00
2019-02-06T08:41:01.453Z,1492.00
2019-02-06T08:42:00.372Z,1508.00
2019-02-06T08:43:00.346Z,1524.00
2019-02-06T08:44:01.795Z,1540.00
2019-02-06T08:45:00.396Z,1560.00
2019-02-06T08:46:00.342Z,1572.00
2019-02-06T08:47:00.322Z,1580.00
2019-02-06T08:48:00.298Z,1592.00
2019-02-06T08:49:00.308Z,1604.00
2019-02-06T08:50:00.332Z,1616.00
2019-02-06T08:51:00.295Z,1632.00
2019-02-06T08:52:00.244Z,1652.00
2019-02-06T08:53:00.242Z,1672.00
2019-02-06T08:54:00.224Z,1696.00
2019-02-06T08:55:00.320Z,1716.00
2019-02-06T08:56:06.236Z,1744.00
2019-02-06T08:57:00.199Z,1768.00
2019-02-06T08:58:00.204Z,1792.00
2019-02-06T08:59:00.206Z,1816.00
2019-02-06T09:00:00.318Z,1840.00
2019-02-06T09:01:00.149Z,1864.00
2019-02-06T09:02:00.222Z,1888.00
2019-02-06T09:03:00.189Z,1916.00
2019-02-06T09:04:00.131Z,1940.00
2019-02-06T09:05:00.449Z,1948.00
2019-02-06T09:06:00.112Z,1952.00
2019-02-06T09:07:00.166Z,1952.00
2019-02-06T09:08:00.126Z,1952.00
2019-02-06T09:09:00.243Z,1948.00
2019-02-06T09:10:00.051Z,1952.00
2019-02-06T09:11:00.055Z,1940.00
2019-02-06T09:12:00.152Z,1932.00
2019-02-06T09:13:00.032Z,1904.00
2019-02-06T09:14:00.052Z,1880.00
2019-02-06T09:15:00.004Z,1860.00
2019-02-06T09:16:00.019Z,1844.00
2019-02-06T09:17:00.028Z,1832.00
2019-02-06T09:18:00.038Z,1832.00
2019-02-06T09:19:00.023Z,1828.00
2019-02-06T09:19:59.996Z,1812.00
2019-02-06T09:21:00.010Z,1808.00
2019-02-06T09:22:00.054Z,1824.00
2019-02-06T09:22:59.969Z,1792.00
2019-02-06T09:23:59.957Z,1812.00
2019-02-06T09:24:59.968Z,1772.00
2019-02-06T09:25:59.972Z,1724.00
2019-02-06T09:26:59.953Z,1688.00
2019-02-06T09:27:59.918Z,1656.00
2019-02-06T09:28:59.933Z,1620.00
2019-02-06T09:29:59.896Z,1592.00
2019-02-06T09:30:59.879Z,1568.00
2019-02-06T09:31:59.869Z,1540.00
2019-02-06T09:32:59.845Z,1504.00
2019-02-06T09:33:59.827Z,1496.00
2019-02-06T09:34:59.930Z,1488.00
2019-02-06T09:35:59.902Z,1492.00
2019-02-06T09:36:59.830Z,1476.00
2019-02-06T09:37:59.753Z,1460.00
2019-02-06T09:39:10.839Z,1460.00
2019-02-06T09:39:59.758Z,1468.00
2019-02-06T09:40:59.767Z,1492.00
2019-02-06T09:42:00.155Z,1516.00
2019-02-06T09:42:59.744Z,1552.00
2019-02-06T09:43:59.719Z,1608.00
2019-02-06T09:44:59.672Z,1668.00
2019-02-06T09:45:59.673Z,1744.00
2019-02-06T09:46:59.642Z,1848.00
2019-02-06T09:47:59.664Z,1856.00
2019-02-06T09:48:59.642Z,1896.00
2019-02-06T09:49:59.650Z,1904.00
2019-02-06T09:50:59.657Z,1924.00
2019-02-06T09:52:00.587Z,1876.00
2019-02-06T09:52:59.611Z,1872.00
2019-02-06T09:53:59.576Z,1848.00
2019-02-06T09:54:59.557Z,1796.00
2019-02-06T09:55:59.555Z,1760.00
2019-02-06T09:56:59.570Z,1728.00
2019-02-06T09:57:59.600Z,1712.00
2019-02-06T09:58:59.565Z,1696.00
2019-02-06T09:59:59.543Z,1676.00
2019-02-06T10:00:59.490Z,1684.00
2019-02-06T10:01:59.499Z,1692.00
2019-02-06T10:02:59.553Z,1716.00
2019-02-06T10:03:59.485Z,1760.00
2019-02-06T10:04:59.491Z,1824.00
2019-02-06T10:05:59.614Z,1916.00
2019-02-06T10:06:59.460Z,2088.00
2019-02-06T10:07:59.618Z,2176.00
2019-02-06T10:08:59.487Z,2328.00
2019-02-06T10:09:59.480Z,2468.00
2019-02-06T10:10:59.397Z,2512.00
2019-02-06T10:11:59.424Z,2608.00
2019-02-06T10:12:59.445Z,2756.00
2019-02-06T10:13:59.430Z,2928.00
2019-02-06T10:14:59.371Z,3068.00
2019-02-06T10:15:59.398Z,3316.00
2019-02-06T10:16:59.389Z,3684.00
2019-02-06T10:17:59.454Z,4260.00
2019-02-06T10:18:59.378Z,4604.00
2019-02-06T10:19:59.505Z,4924.00
2019-02-06T10:20:59.309Z,5420.00
2019-02-06T10:21:59.334Z,5420.00
2019-02-06T10:22:59.431Z,5792.00
2019-02-06T10:23:59.301Z,5988.00
2019-02-06T10:24:59.281Z,6336.00
2019-02-06T10:25:59.287Z,6104.00
2019-02-06T10:26:59.228Z,5588.00
2019-02-06T10:27:59.295Z,4264.00
2019-02-06T10:28:59.219Z,3256.00
2019-02-06T10:29:59.222Z,2840.00
2019-02-06T10:30:59.190Z,2652.00
2019-02-06T10:31:59.192Z,2544.00
2019-02-06T10:32:59.336Z,2460.00
2019-02-06T10:33:59.144Z,2400.00
2019-02-06T10:34:59.132Z,2108.00
2019-02-06T10:35:59.121Z,2092.00
2019-02-06T10:36:59.102Z,2100.00
2019-02-06T10:37:59.123Z,2116.00
2019-02-06T10:38:59.114Z,2124.00
2019-02-06T10:39:59.086Z,2160.00
2019-02-06T10:40:59.083Z,2288.00
2019-02-06T10:41:59.055Z,2436.00
2019-02-06T10:43:00.084Z,2388.00
2019-02-06T10:43:59.072Z,2352.00
2019-02-06T10:44:59.077Z,2408.00
2019-02-06T10:45:59.012Z,2464.00
2019-02-06T10:46:59.001Z,2232.00
2019-02-06T10:47:59.040Z,2120.00
2019-02-06T10:48:58.981Z,2096.00
2019-02-06T10:49:58.976Z,2044.00
2019-02-06T10:50:58.980Z,2020.00
2019-02-06T10:51:58.939Z,2024.00
2019-02-06T10:52:58.961Z,2036.00
2019-02-06T10:53:59.022Z,2064.00
2019-02-06T10:54:58.942Z,2096.00
2019-02-06T10:55:58.934Z,2100.00
2019-02-06T10:56:58.902Z,2112.00
2019-02-06T10:57:58.907Z,2132.00
2019-02-06T10:58:58.869Z,2156.00
2019-02-06T10:59:58.935Z,2172.00
2019-02-06T11:00:58.914Z,2184.00
2019-02-06T11:01:58.836Z,2188.00
2019-02-06T11:02:58.843Z,2188.00
2019-02-06T11:03:58.817Z,2164.00
2019-02-06T11:04:58.796Z,2136.00
2019-02-06T11:05:58.821Z,2112.00
2019-02-06T11:06:58.794Z,2092.00
2019-02-06T11:07:58.774Z,2108.00
2019-02-06T11:08:58.789Z,2132.00
2019-02-06T11:09:58.760Z,2176.00
2019-02-06T11:10:58.744Z,2240.00
2019-02-06T11:11:58.736Z,2336.00
2019-02-06T11:13:01.337Z,2448.00
2019-02-06T11:13:58.729Z,2600.00
2019-02-06T11:14:58.742Z,2780.00
2019-02-06T11:15:58.744Z,2980.00
2019-02-06T11:16:58.672Z,3224.00
2019-02-06T11:17:59.135Z,3936.00
2019-02-06T11:18:58.766Z,5448.00
2019-02-06T11:19:58.663Z,6400.00
2019-02-06T11:20:58.664Z,7232.00
2019-02-06T11:21:58.658Z,9532.00
2019-02-06T11:22:58.677Z,9032.00
2019-02-06T11:23:58.740Z,9404.00
2019-02-06T11:24:58.600Z,10428.00
2019-02-06T11:25:58.651Z,7004.00
2019-02-06T11:26:58.585Z,5580.00
2019-02-06T11:27:58.610Z,8204.00
2019-02-06T11:28:58.727Z,7504.00
2019-02-06T11:29:58.682Z,5972.00
2019-02-06T11:30:58.515Z,7572.00
2019-02-06T11:31:58.504Z,11260.00
2019-02-06T11:32:58.507Z,12136.00
2019-02-06T11:33:58.511Z,10728.00
2019-02-06T11:34:58.487Z,9768.00
2019-02-06T11:35:58.460Z,10128.00
2019-02-06T11:36:58.448Z,9092.00
2019-02-06T11:37:58.474Z,9572.00
2019-02-06T11:38:58.472Z,8612.00
2019-02-06T11:39:58.446Z,8156.00
2019-02-06T11:40:58.410Z,7788.00
2019-02-06T11:41:58.429Z,7528.00
2019-02-06T11:42:58.472Z,7188.00
2019-02-06T11:43:58.461Z,7344.00
2019-02-06T11:44:58.379Z,7984.00
2019-02-06T11:45:58.353Z,7604.00
2019-02-06T11:46:58.373Z,7600.00
2019-02-06T11:47:58.353Z,6680.00
2019-02-06T11:48:58.453Z,6556.00
2019-02-06T11:49:58.361Z,7024.00
2019-02-06T11:50:58.312Z,8676.00
2019-02-06T11:51:58.311Z,9272.00
2019-02-06T11:52:58.289Z,9508.00
2019-02-06T11:53:58.290Z,8760.00
2019-02-06T11:54:58.295Z,8288.00
2019-02-06T11:55:58.992Z,9392.00
2019-02-06T11:56:58.929Z,11192.00
2019-02-06T11:57:58.232Z,12052.00
2019-02-06T11:58:58.249Z,11480.00
2019-02-06T11:59:58.546Z,10912.00
2019-02-06T12:00:58.186Z,11300.00
2019-02-06T12:01:58.247Z,12840.00
2019-02-06T12:02:58.288Z,12120.00
2019-02-06T12:03:58.198Z,12372.00
2019-02-06T12:04:58.147Z,12284.00
2019-02-06T12:05:58.154Z,11612.00
2019-02-06T12:06:58.205Z,12268.00
2019-02-06T12:07:58.126Z,13188.00
2019-02-06T12:08:58.202Z,11944.00
2019-02-06T12:10:09.023Z,12732.00
2019-02-06T12:10:58.093Z,13992.00
2019-02-06T12:11:58.130Z,12364.00
2019-02-06T12:12:58.091Z,7800.00
2019-02-06T12:13:58.204Z,5056.00
2019-02-06T12:14:59.437Z,4196.00
2019-02-06T12:15:58.357Z,3740.00
2019-02-06T12:16:58.035Z,3444.00
2019-02-06T12:17:58.094Z,3220.00
2019-02-06T12:18:58.079Z,3052.00
2019-02-06T12:19:58.061Z,2788.00
2019-02-06T12:21:02.675Z,2552.00
2019-02-06T12:21:57.992Z,2360.00
2019-02-06T12:22:58.020Z,2212.00
2019-02-06T12:23:58.286Z,2052.00
2019-02-06T12:24:58.079Z,1940.00
2019-02-06T12:25:58.306Z,1844.00
2019-02-06T12:26:57.958Z,1776.00
2019-02-06T12:27:58.059Z,1760.00
2019-02-06T12:28:57.911Z,1700.00
2019-02-06T12:29:57.948Z,1660.00
2019-02-06T12:30:57.941Z,1596.00
2019-02-06T12:31:57.870Z,1520.00
2019-02-06T12:32:57.861Z,1452.00
2019-02-06T12:33:57.842Z,1388.00
2019-02-06T12:34:57.835Z,1360.00
2019-02-06T12:36:04.089Z,1348.00
2019-02-06T12:36:57.825Z,1344.00
2019-02-06T12:37:57.999Z,1356.00
2019-02-06T12:38:57.806Z,1348.00
2019-02-06T12:39:57.807Z,1344.00
2019-02-06T12:40:57.829Z,1316.00